Time;durP1;ratioP1;P1;durP2;ratioP2;P2;SDS_P1;SDS_P2;PMS_P1;PMS_P2;Temp;Humidity;BMP_temperature;BMP_pressure;BME280_temperature;BME280_humidity;BME280_pressure;Samples;Min_cycle;Max_cycle;Signal;HPM_P1;HPM_P2
2022/11/05 00:10:34;;;;;;;7.40;5.67;;;4.80;99.90;;;;;;4967972;29;20428;-86
2022/11/05 00:19:05;;;;;;;8.03;5.90;;;4.70;99.90;;;;;;4968555;29;20422;-84
2022/11/05 00:27:11;;;;;;;7.13;6.30;;;4.60;99.90;;;;;;4968740;29;20416;-84
2022/11/05 00:29:46;;;;;;;7.87;5.13;;;4.50;99.90;;;;;;4968937;29;20411;-85
2022/11/05 00:32:12;;;;;;;7.40;5.80;;;4.50;99.90;;;;;;5114742;23;20498;-83
2022/11/05 00:34:37;;;;;;;8.53;6.10;;;4.50;99.90;;;;;;4970243;28;20442;-84
2022/11/05 00:37:10;;;;;;;9.50;6.17;;;4.50;99.90;;;;;;4988288;28;20249;-84
2022/11/05 00:39:36;;;;;;;7.53;5.40;;;4.60;99.90;;;;;;4988071;28;20449;-84
2022/11/05 00:44:59;;;;;;;6.93;4.30;;;4.70;99.90;;;;;;4986030;28;20421;-84
2022/11/05 00:50:09;;;;;;;8.03;5.67;;;4.40;99.90;;;;;;4986456;28;20509;-85
2022/11/05 00:53:17;;;;;;;6.00;5.40;;;4.40;99.90;;;;;;4985952;28;20929;-85
2022/11/05 00:55:27;;;;;;;6.60;4.63;;;4.40;99.90;;;;;;4955422;28;20443;-88
2022/11/05 00:57:53;;;;;;;5.47;3.43;;;4.50;99.90;;;;;;4967818;28;20433;-85
2022/11/05 01:00:20;;;;;;;7.70;5.10;;;4.50;99.90;;;;;;4965194;28;20416;-88
2022/11/05 01:02:45;;;;;;;5.83;3.80;;;4.50;99.90;;;;;;4983538;28;20548;-85
2022/11/05 01:05:12;;;;;;;6.90;4.40;;;4.60;99.90;;;;;;4977945;28;20454;-85
2022/11/05 01:07:38;;;;;;;6.20;4.77;;;4.80;99.90;;;;;;4985965;28;20175;-87
2022/11/05 01:10:03;;;;;;;6.97;4.20;;;4.80;99.90;;;;;;4985860;28;20430;-89
2022/11/05 01:12:31;;;;;;;8.50;4.07;;;4.90;99.90;;;;;;4988561;28;20170;-86
2022/11/05 01:14:57;;;;;;;10.40;5.10;;;5.00;99.90;;;;;;4987353;28;20181;-90
2022/11/05 01:17:22;;;;;;;8.03;5.13;;;5.00;99.90;;;;;;4957745;28;20418;-88
2022/11/05 01:19:48;;;;;;;9.87;5.50;;;5.00;99.90;;;;;;4974966;28;20788;-91
2022/11/05 01:22:13;;;;;;;4.93;2.67;;;5.00;99.90;;;;;;4974550;28;20166;-92
2022/11/05 01:24:39;;;;;;;7.27;4.13;;;5.00;99.90;;;;;;4975068;28;20711;-88
2022/11/05 01:27:04;;;;;;;5.80;4.17;;;5.00;99.90;;;;;;4957594;28;20187;-90
2022/11/05 01:29:30;;;;;;;8.13;4.17;;;4.90;99.90;;;;;;4974920;28;20541;-89
2022/11/05 01:31:55;;;;;;;7.10;2.83;;;4.90;99.90;;;;;;4973695;28;20190;-91
2022/11/05 01:34:21;;;;;;;5.97;3.30;;;4.80;99.90;;;;;;4973469;28;20271;-90
2022/11/05 01:36:46;;;;;;;7.47;3.70;;;4.70;99.90;;;;;;4974532;28;20239;-89
2022/11/05 01:39:12;;;;;;;5.93;3.57;;;4.50;99.90;;;;;;4975415;28;20179;-87
2022/11/05 01:41:37;;;;;;;3.73;3.03;;;4.40;99.90;;;;;;4978265;28;20185;-93
2022/11/05 01:44:03;;;;;;;4.20;2.90;;;4.40;99.90;;;;;;4977356;28;20246;-94
2022/11/05 01:46:35;;;;;;;4.73;2.93;;;4.30;99.90;;;;;;4983306;28;20178;-89
2022/11/05 01:49:19;;;;;;;6.10;3.87;;;4.30;99.90;;;;;;4983111;28;20174;-85
2022/11/05 01:51:45;;;;;;;6.50;3.03;;;4.20;99.90;;;;;;4982257;28;20492;-91
2022/11/05 01:54:15;;;;;;;5.90;3.20;;;4.20;99.90;;;;;;4985437;28;20905;-94
2022/11/05 01:56:48;;;;;;;5.00;4.50;;;4.20;99.90;;;;;;4988329;28;20414;-88
2022/11/05 01:59:26;;;;;;;7.30;3.83;;;4.20;99.90;;;;;;4971444;28;20488;-94
2022/11/05 02:01:53;;;;;;;4.27;3.50;;;4.20;99.90;;;;;;4971886;28;20445;-89
2022/11/05 02:04:38;;;;;;;5.23;3.67;;;4.10;99.90;;;;;;4983435;28;20464;-96
2022/11/05 02:07:06;;;;;;;7.40;3.50;;;4.00;99.90;;;;;;4981311;28;20413;-92
2022/11/05 02:09:49;;;;;;;13.27;4.20;;;3.90;99.90;;;;;;4980662;28;20423;-94
2022/11/05 02:12:17;;;;;;;6.90;3.20;;;3.90;99.90;;;;;;4984948;28;20487;-87
2022/11/05 02:14:42;;;;;;;6.70;4.10;;;3.90;99.90;;;;;;4974396;28;20433;-87
2022/11/05 02:17:32;;;;;;;6.17;3.53;;;3.80;99.90;;;;;;4975343;28;20428;-86
2022/11/05 02:20:26;;;;;;;5.57;2.60;;;3.80;99.90;;;;;;4995692;28;20177;-84
2022/11/05 02:23:11;;;;;;;5.80;2.80;;;3.90;99.90;;;;;;4998100;28;20406;-85
2022/11/05 02:25:58;;;;;;;4.67;3.57;;;3.90;99.90;;;;;;4998411;28;20396;-86
2022/11/05 02:28:49;;;;;;;6.13;3.97;;;3.70;99.90;;;;;;4998734;28;20408;-84
2022/11/05 02:31:29;;;;;;;6.43;3.70;;;3.70;99.90;;;;;;4998815;28;20455;-84
2022/11/05 02:34:10;;;;;;;6.17;3.80;;;3.70;99.90;;;;;;4996782;28;20479;-92
2022/11/05 02:36:44;;;;;;;4.03;2.77;;;3.70;99.90;;;;;;4983321;28;20419;-91
2022/11/05 02:39:29;;;;;;;8.80;4.10;;;3.60;99.90;;;;;;4977952;28;20472;-94
2022/11/05 02:42:05;;;;;;;8.30;4.83;;;3.60;99.90;;;;;;4977579;28;20405;-94
2022/11/05 02:44:53;;;;;;;7.43;4.20;;;3.60;99.90;;;;;;4977669;28;20435;-94
2022/11/05 02:47:32;;;;;;;5.90;3.50;;;3.60;99.90;;;;;;4977478;28;20400;-94
2022/11/05 02:50:32;;;;;;;7.53;3.30;;;3.60;99.90;;;;;;4977877;28;20429;-92
2022/11/05 02:53:30;;;;;;;3.73;2.90;;;3.50;99.90;;;;;;4976197;28;20964;-92
2022/11/05 02:56:01;;;;;;;9.00;3.40;;;3.40;99.90;;;;;;4976709;28;20442;-94
2022/11/05 02:58:27;;;;;;;7.60;4.13;;;3.40;99.90;;;;;;4960763;28;20443;-92
2022/11/05 03:00:57;;;;;;;8.13;4.73;;;3.40;99.90;;;;;;4977269;28;20424;-90
2022/11/05 03:03:43;;;;;;;5.20;3.00;;;3.40;99.90;;;;;;4976584;28;20456;-91
2022/11/05 03:06:26;;;;;;;5.47;3.73;;;3.30;99.90;;;;;;4977622;28;20864;-91
2022/11/05 03:09:00;;;;;;;7.37;3.60;;;3.40;99.90;;;;;;4976224;28;20420;-91
2022/11/05 03:11:29;;;;;;;5.10;3.97;;;3.30;99.90;;;;;;4976346;28;20418;-86
2022/11/05 03:14:37;;;;;;;6.17;3.40;;;3.30;99.90;;;;;;4958843;28;20480;-89
2022/11/05 03:17:21;;;;;;;8.33;4.00;;;3.30;99.90;;;;;;4976230;28;20408;-84
2022/11/05 03:19:53;;;;;;;4.80;3.00;;;3.20;99.90;;;;;;4975126;28;20531;-91
2022/11/05 03:22:33;;;;;;;5.00;2.13;;;3.10;99.90;;;;;;4975691;28;20415;-85
2022/11/05 03:25:04;;;;;;;6.40;2.77;;;3.10;99.90;;;;;;4958890;28;20431;-88
2022/11/05 03:27:35;;;;;;;6.20;3.03;;;3.20;99.90;;;;;;4975955;28;20768;-86
2022/11/05 03:30:06;;;;;;;4.03;2.63;;;3.20;99.90;;;;;;4976100;28;21191;-85
2022/11/05 03:32:39;;;;;;;5.27;2.70;;;3.20;99.90;;;;;;4958491;28;20499;-86
2022/11/05 03:35:11;;;;;;;6.43;3.13;;;3.20;99.90;;;;;;4958800;28;20424;-86
2022/11/05 03:37:40;;;;;;;4.03;3.10;;;3.20;99.90;;;;;;4958671;28;20456;-87
2022/11/05 03:40:08;;;;;;;4.13;3.20;;;3.10;99.90;;;;;;4958401;28;20448;-88
2022/11/05 03:42:39;;;;;;;5.50;1.97;;;2.90;99.90;;;;;;4976081;28;20424;-84
2022/11/05 03:45:12;;;;;;;8.67;2.80;;;3.00;99.90;;;;;;4960093;28;20429;-84
2022/11/05 03:47:42;;;;;;;3.97;2.80;;;3.10;99.90;;;;;;4976826;28;20495;-84
2022/11/05 03:50:31;;;;;;;6.80;3.20;;;3.00;99.90;;;;;;4957940;28;20424;-83
2022/11/05 03:53:02;;;;;;;3.93;2.67;;;2.90;99.90;;;;;;4967316;28;21006;-83
2022/11/05 03:55:35;;;;;;;6.57;3.43;;;2.90;99.90;;;;;;4957673;28;21007;-83
2022/11/05 03:58:03;;;;;;;3.97;2.73;;;3.00;99.90;;;;;;4975150;28;20890;-82
2022/11/05 04:00:30;;;;;;;2.30;2.10;;;2.90;99.90;;;;;;4974936;28;20487;-84
2022/11/05 04:02:55;;;;;;;11.33;2.43;;;3.00;99.90;;;;;;4975020;28;20428;-85
2022/11/05 04:05:21;;;;;;;6.83;3.07;;;2.90;99.90;;;;;;4974589;28;20426;-83
2022/11/05 04:13:23;;;;;;;3.20;1.80;;;2.70;99.90;;;;;;4974835;28;20473;-83
2022/11/05 04:18:33;;;;;;;5.77;2.23;;;2.60;99.90;;;;;;4974934;28;20801;-84
2022/11/05 04:26:27;;;;;;;4.17;2.80;;;2.70;99.90;;;;;;4975105;28;20526;-83
2022/11/05 04:31:37;;;;;;;7.50;3.37;;;2.60;99.90;;;;;;4974985;28;20178;-86
2022/11/05 04:34:03;;;;;;;3.93;2.37;;;2.70;99.90;;;;;;4974507;28;20571;-85
2022/11/05 04:36:28;;;;;;;4.90;2.70;;;2.90;99.90;;;;;;4957077;28;20456;-86
2022/11/05 04:38:54;;;;;;;6.17;2.83;;;2.70;99.90;;;;;;4974670;28;20184;-87
2022/11/05 04:41:20;;;;;;;3.17;1.80;;;2.70;99.90;;;;;;4977479;28;20186;-84
2022/11/05 04:43:45;;;;;;;3.07;2.80;;;2.60;99.90;;;;;;4977236;28;20204;-87
2022/11/05 04:46:11;;;;;;;4.30;2.33;;;2.80;99.90;;;;;;4957487;28;20176;-87
2022/11/05 04:48:37;;;;;;;6.57;4.23;;;2.70;99.90;;;;;;4957514;28;20642;-88
2022/11/05 04:51:03;;;;;;;6.83;2.90;;;2.80;99.90;;;;;;4974174;28;20179;-85
2022/11/05 04:53:29;;;;;;;6.80;2.60;;;2.80;99.90;;;;;;4974375;28;20467;-85
2022/11/05 04:56:11;;;;;;;6.10;3.57;;;2.80;99.90;;;;;;4974538;28;20416;-86
2022/11/05 04:58:40;;;;;;;4.13;1.43;;;2.80;99.90;;;;;;4957189;28;20436;-87
2022/11/05 05:01:14;;;;;;;6.43;2.07;;;2.80;99.90;;;;;;4974417;28;20766;-87
2022/11/05 05:03:40;;;;;;;7.30;3.63;;;2.60;99.90;;;;;;4957416;28;20535;-86
2022/11/05 05:06:06;;;;;;;4.83;2.57;;;2.70;99.90;;;;;;4957366;28;20518;-85
2022/11/05 05:08:32;;;;;;;5.23;2.50;;;2.60;99.90;;;;;;4974694;28;20781;-85
2022/11/05 05:11:06;;;;;;;3.33;1.80;;;2.50;99.90;;;;;;4974403;28;20448;-86
2022/11/05 05:13:32;;;;;;;4.43;2.60;;;2.50;99.90;;;;;;4957446;28;20273;-86
2022/11/05 05:15:57;;;;;;;4.30;2.87;;;2.50;99.90;;;;;;4958443;28;20860;-91
2022/11/05 05:18:26;;;;;;;7.03;2.57;;;2.40;99.90;;;;;;4977136;28;20256;-86
2022/11/05 05:23:40;;;;;;;4.40;3.60;;;2.40;99.90;;;;;;4980265;28;20463;-94
2022/11/05 05:26:06;;;;;;;11.90;3.20;;;2.50;99.90;;;;;;4960811;28;20463;-96
2022/11/05 05:28:31;;;;;;;4.40;1.80;;;2.40;99.90;;;;;;4977917;28;20181;-87
2022/11/05 05:30:59;;;;;;;6.63;2.53;;;2.40;99.90;;;;;;4963080;28;20239;-86
2022/11/05 05:33:26;;;;;;;4.83;2.77;;;2.40;99.90;;;;;;4965045;28;20231;-86
2022/11/05 05:35:51;;;;;;;4.00;2.70;;;2.50;99.90;;;;;;4964196;28;20479;-86
2022/11/05 05:38:17;;;;;;;3.63;2.50;;;2.70;99.90;;;;;;4982001;28;20474;-86
2022/11/05 05:40:43;;;;;;;4.70;2.53;;;2.60;99.90;;;;;;4963745;28;20420;-84
2022/11/05 05:43:08;;;;;;;4.60;2.00;;;2.40;99.90;;;;;;4961700;28;20630;-89
2022/11/05 05:45:35;;;;;;;3.97;3.20;;;2.40;99.90;;;;;;4961185;28;20183;-91
2022/11/05 05:48:01;;;;;;;2.73;1.50;;;2.40;99.90;;;;;;4960886;28;20184;-86
2022/11/05 05:50:26;;;;;;;10.43;3.43;;;2.60;99.90;;;;;;4977337;28;20849;-85
2022/11/05 05:52:52;;;;;;;6.90;3.30;;;2.50;99.90;;;;;;4960270;28;20220;-88
2022/11/05 05:55:18;;;;;;;4.97;2.87;;;2.60;99.90;;;;;;4977414;28;20172;-92
2022/11/05 05:57:43;;;;;;;3.53;1.80;;;2.50;99.90;;;;;;4978937;28;20455;-83
2022/11/05 06:00:09;;;;;;;10.23;3.53;;;2.50;99.90;;;;;;4977125;28;20216;-89
2022/11/05 06:02:35;;;;;;;4.30;2.37;;;2.50;99.90;;;;;;4977948;28;20180;-88
2022/11/05 06:05:00;;;;;;;4.73;2.87;;;2.30;99.90;;;;;;4977932;28;20424;-93
2022/11/05 06:07:26;;;;;;;5.70;2.70;;;2.30;99.90;;;;;;4978253;28;20207;-92
2022/11/05 06:09:51;;;;;;;6.33;3.20;;;2.30;99.90;;;;;;4978078;28;20181;-91
2022/11/05 06:12:17;;;;;;;3.47;1.97;;;2.20;99.90;;;;;;4977892;28;20172;-93
2022/11/05 06:14:42;;;;;;;4.07;2.07;;;2.20;99.90;;;;;;4977936;28;20558;-95
2022/11/05 06:17:08;;;;;;;3.93;2.70;;;2.30;99.90;;;;;;4977888;28;20204;-91
2022/11/05 06:19:33;;;;;;;5.80;3.40;;;2.30;99.90;;;;;;4978006;28;20282;-93
2022/11/05 06:21:59;;;;;;;6.43;5.33;;;2.40;99.90;;;;;;4960192;28;20180;-85
2022/11/05 06:24:24;;;;;;;4.90;3.40;;;2.30;99.90;;;;;;4960785;28;20180;-93
2022/11/05 06:26:50;;;;;;;5.17;3.50;;;2.30;99.90;;;;;;4977611;28;20227;-94
2022/11/05 06:29:15;;;;;;;3.73;2.47;;;2.40;99.90;;;;;;4977486;28;20208;-94
2022/11/05 06:31:41;;;;;;;6.10;3.87;;;2.40;99.90;;;;;;4977387;28;20189;-91
2022/11/05 06:34:06;;;;;;;7.43;4.40;;;2.40;99.90;;;;;;4977103;28;20691;-85
2022/11/05 06:36:32;;;;;;;12.57;4.13;;;2.40;99.90;;;;;;4976799;28;20175;-92
2022/11/05 06:38:57;;;;;;;5.43;3.83;;;2.30;99.90;;;;;;4980262;28;20176;-94
2022/11/05 06:41:23;;;;;;;8.10;4.00;;;2.30;99.90;;;;;;4964619;28;20187;-94
2022/11/05 06:43:48;;;;;;;5.30;3.03;;;2.50;99.90;;;;;;4979164;28;20172;-86
2022/11/05 06:46:14;;;;;;;10.67;5.30;;;2.40;99.90;;;;;;4971212;28;20196;-88
2022/11/05 06:48:39;;;;;;;5.23;4.20;;;2.40;99.90;;;;;;4977370;28;20169;-90
2022/11/05 06:51:06;;;;;;;6.53;4.40;;;2.30;99.90;;;;;;4976807;28;20169;-87
2022/11/05 06:53:32;;;;;;;8.43;5.10;;;2.40;99.90;;;;;;4978375;28;20672;-96
2022/11/05 06:56:01;;;;;;;9.13;4.97;;;2.50;99.90;;;;;;4984661;28;20416;-94
2022/11/05 06:58:26;;;;;;;9.77;4.73;;;2.50;99.90;;;;;;4984073;28;20183;-96
2022/11/05 07:00:52;;;;;;;7.33;5.50;;;2.50;99.90;;;;;;4983625;28;20408;-93
2022/11/05 07:03:18;;;;;;;11.10;3.63;;;2.50;99.90;;;;;;4980423;28;20242;-90
2022/11/05 07:05:47;;;;;;;9.53;4.53;;;2.60;99.90;;;;;;4967436;28;20183;-86
2022/11/05 07:08:13;;;;;;;7.60;4.30;;;2.60;99.90;;;;;;4971384;28;20200;-85
2022/11/05 07:10:46;;;;;;;6.20;4.33;;;2.70;99.90;;;;;;4975603;28;20420;-85
2022/11/05 07:13:12;;;;;;;11.40;5.70;;;2.70;99.90;;;;;;4993164;28;20257;-85
2022/11/05 07:15:37;;;;;;;8.00;4.27;;;2.80;99.90;;;;;;4991059;28;20421;-92
2022/11/05 07:18:06;;;;;;;9.20;4.30;;;3.00;99.90;;;;;;4984977;28;20594;-93
2022/11/05 07:20:32;;;;;;;9.83;5.37;;;3.10;99.90;;;;;;4986458;28;20191;-85
2022/11/05 07:23:05;;;;;;;5.37;3.70;;;3.20;99.90;;;;;;4959379;28;20558;-92
2022/11/05 07:25:32;;;;;;;6.67;3.60;;;3.50;99.90;;;;;;4976643;28;20413;-94
2022/11/05 07:27:58;;;;;;;6.40;4.67;;;3.40;99.90;;;;;;4976675;28;20457;-95
2022/11/05 07:30:23;;;;;;;11.40;4.47;;;3.40;99.90;;;;;;4976441;28;20434;-90
2022/11/05 07:32:49;;;;;;;11.17;4.00;;;3.50;99.90;;;;;;4976021;28;20471;-94
2022/11/05 07:35:15;;;;;;;6.93;3.90;;;4.00;99.90;;;;;;4958886;28;20239;-93
2022/11/05 07:37:45;;;;;;;4.93;3.00;;;4.40;99.90;;;;;;4976226;28;20178;-93
2022/11/05 07:40:14;;;;;;;7.70;3.87;;;4.50;99.90;;;;;;4976943;28;20227;-93
2022/11/05 07:42:47;;;;;;;8.23;3.80;;;4.40;99.90;;;;;;4951711;28;20432;-86
2022/11/05 07:45:23;;;;;;;5.17;4.07;;;4.40;99.90;;;;;;4993879;28;20524;-83
2022/11/05 07:48:37;;;;;;;7.03;4.60;;;4.60;99.90;;;;;;4993925;28;20406;-83
2022/11/05 07:51:08;;;;;;;7.83;3.07;;;4.80;99.90;;;;;;4991443;28;20412;-83
2022/11/05 07:53:34;;;;;;;8.80;3.03;;;4.90;99.90;;;;;;4988433;28;20556;-85
2022/11/05 07:55:59;;;;;;;7.50;3.63;;;5.20;99.90;;;;;;4989602;28;20439;-84
2022/11/05 07:58:25;;;;;;;5.07;2.60;;;5.40;99.90;;;;;;4988090;28;20178;-85
2022/11/05 08:00:50;;;;;;;5.10;2.60;;;5.70;99.90;;;;;;4980009;28;20595;-90
2022/11/05 08:03:17;;;;;;;7.37;3.30;;;6.20;99.90;;;;;;4977111;28;20184;-91
2022/11/05 08:05:45;;;;;;;6.97;3.40;;;6.90;99.90;;;;;;4983749;28;20226;-87
2022/11/05 08:08:14;;;;;;;6.17;3.03;;;7.80;99.90;;;;;;4975284;28;20933;-90
2022/11/05 08:10:40;;;;;;;6.27;2.23;;;8.80;99.90;;;;;;4975338;28;20414;-84
2022/11/05 08:13:06;;;;;;;5.23;2.63;;;9.60;99.90;;;;;;4957936;28;20467;-91
2022/11/05 08:15:32;;;;;;;5.47;1.80;;;10.10;52.90;;;;;;4957994;28;20424;-92
2022/11/05 08:18:03;;;;;;;6.00;1.60;;;10.20;33.90;;;;;;4975292;28;20413;-87
2022/11/05 08:20:29;;;;;;;4.03;1.53;;;10.60;1.00;;;;;;4974682;28;20430;-91
2022/11/05 08:22:55;;;;;;;4.03;1.83;;;9.60;90.10;;;;;;4975047;28;20444;-87
2022/11/05 08:25:22;;;;;;;2.47;1.10;;;8.80;99.90;;;;;;4975096;28;20263;-90
2022/11/05 08:27:53;;;;;;;5.40;2.23;;;8.40;99.90;;;;;;4957706;28;20426;-92
2022/11/05 08:30:18;;;;;;;2.57;1.27;;;8.20;99.90;;;;;;4975018;28;20449;-94
2022/11/05 08:32:44;;;;;;;4.90;2.00;;;8.80;99.90;;;;;;4957392;28;20514;-93
2022/11/05 08:35:09;;;;;;;3.50;1.33;;;10.40;99.90;;;;;;4975337;28;20271;-95
2022/11/05 08:37:35;;;;;;;5.60;2.90;;;11.70;1.00;;;;;;4978450;28;20175;-88
2022/11/05 08:40:01;;;;;;;4.00;1.03;;;12.40;1.00;;;;;;4975650;28;20179;-86
2022/11/05 08:42:26;;;;;;;4.77;1.57;;;11.30;1.00;;;;;;4974743;28;20177;-92
2022/11/05 08:44:52;;;;;;;2.00;0.93;;;10.80;1.00;;;;;;4958123;28;20184;-93
2022/11/05 08:47:17;;;;;;;3.17;1.03;;;11.00;1.00;;;;;;4975056;28;20628;-86
2022/11/05 08:49:42;;;;;;;3.70;0.97;;;12.20;1.00;;;;;;4975753;28;20194;-86
2022/11/05 08:52:08;;;;;;;3.13;1.20;;;13.10;99.90;;;;;;4974749;28;20180;-89
2022/11/05 08:54:34;;;;;;;5.90;1.20;;;14.10;99.90;;;;;;4973695;28;20226;-90
2022/11/05 08:56:59;;;;;;;3.93;1.13;;;14.50;99.90;;;;;;4974893;28;20176;-89
2022/11/05 08:59:25;;;;;;;4.63;0.80;;;14.70;99.90;;;;;;4976325;28;20326;-88
2022/11/05 09:01:50;;;;;;;1.67;0.47;;;14.80;1.00;;;;;;4978889;28;20184;-87
2022/11/05 09:04:16;;;;;;;3.63;1.00;;;15.70;1.00;;;;;;4973906;28;20180;-86
2022/11/05 09:06:41;;;;;;;3.00;0.80;;;15.80;1.00;;;;;;4974353;28;20595;-87
2022/11/05 09:09:06;;;;;;;2.80;1.23;;;15.90;99.90;;;;;;4974307;28;20187;-86
2022/11/05 09:11:32;;;;;;;5.40;1.00;;;15.40;1.00;;;;;;4994943;28;20221;-86
2022/11/05 09:13:57;;;;;;;4.70;1.10;;;16.20;99.90;;;;;;4997024;28;20271;-84
2022/11/05 09:16:24;;;;;;;4.37;0.90;;;16.20;99.90;;;;;;4997677;28;20177;-85
2022/11/05 09:18:51;;;;;;;1.77;0.50;;;16.10;99.90;;;;;;4996840;28;20184;-87
2022/11/05 09:21:18;;;;;;;2.50;1.13;;;16.10;99.90;;;;;;4974951;28;20451;-86
2022/11/05 09:23:44;;;;;;;2.10;0.73;;;16.50;99.90;;;;;;4974640;28;20423;-88
2022/11/05 09:26:11;;;;;;;3.67;0.63;;;17.20;99.90;;;;;;4957150;28;20424;-86
2022/11/05 09:28:37;;;;;;;3.63;0.83;;;17.30;99.90;;;;;;4974132;28;20507;-87
2022/11/05 09:31:08;;;;;;;2.77;0.60;;;17.20;99.90;;;;;;4974143;28;20411;-87
2022/11/05 09:33:35;;;;;;;2.23;0.87;;;16.90;99.90;;;;;;4956434;28;20582;-86
2022/11/05 09:36:01;;;;;;;4.03;1.23;;;17.10;99.90;;;;;;4973887;28;20428;-85
2022/11/05 09:38:27;;;;;;;1.83;0.33;;;17.00;99.90;;;;;;4973993;28;20415;-87
2022/11/05 09:41:00;;;;;;;1.43;0.30;;;17.10;99.90;;;;;;4973862;28;20179;-87
2022/11/05 09:43:37;;;;;;;2.20;0.60;;;17.70;99.90;;;;;;4974014;28;20168;-88
2022/11/05 09:46:16;;;;;;;2.33;0.60;;;16.90;99.90;;;;;;4973902;28;20816;-89
2022/11/05 09:48:46;;;;;;;1.90;0.73;;;16.00;99.90;;;;;;4973940;28;20772;-89
2022/11/05 09:51:14;;;;;;;2.20;0.60;;;16.60;99.90;;;;;;4973570;28;20432;-89
2022/11/05 09:53:40;;;;;;;3.10;0.37;;;15.90;99.90;;;;;;4973861;28;20923;-86
2022/11/05 09:56:37;;;;;;;1.30;0.43;;;14.40;1.00;;;;;;4973985;28;20514;-87
2022/11/05 09:59:26;;;;;;;1.30;0.37;;;13.60;99.90;;;;;;4971166;28;20199;-85
2022/11/05 10:02:08;;;;;;;3.07;0.37;;;14.40;1.00;;;;;;4974288;28;20430;-86
2022/11/05 10:04:34;;;;;;;3.60;0.57;;;14.50;1.00;;;;;;4957094;28;20570;-87
2022/11/05 10:07:03;;;;;;;2.00;0.30;;;14.80;99.90;;;;;;4964775;28;20517;-88
2022/11/05 10:09:38;;;;;;;1.80;0.40;;;14.70;99.90;;;;;;4995880;28;20710;-84
2022/11/05 10:12:17;;;;;;;2.30;0.43;;;14.20;1.00;;;;;;4995612;28;20479;-88
2022/11/05 10:14:48;;;;;;;1.93;0.80;;;15.70;1.00;;;;;;4995480;28;20512;-86
2022/11/05 10:17:24;;;;;;;1.90;0.47;;;16.20;99.90;;;;;;4978090;28;20433;-84
2022/11/05 10:19:59;;;;;;;2.00;0.20;;;16.40;99.90;;;;;;4981325;28;20446;-86
2022/11/05 10:22:24;;;;;;;3.00;0.50;;;17.30;99.90;;;;;;4958782;28;20423;-86
2022/11/05 10:24:52;;;;;;;1.90;0.37;;;17.20;99.90;;;;;;4975693;28;20478;-84
2022/11/05 10:27:29;;;;;;;3.83;0.90;;;17.70;99.90;;;;;;4975190;28;20635;-89
2022/11/05 10:29:55;;;;;;;3.90;1.70;;;17.70;99.90;;;;;;4991250;28;20422;-88
2022/11/05 10:32:42;;;;;;;5.53;0.57;;;17.20;99.90;;;;;;4994728;28;20802;-89
2022/11/05 10:35:17;;;;;;;6.30;0.70;;;15.90;99.90;;;;;;4994477;28;20938;-85
2022/11/05 10:37:46;;;;;;;2.83;0.50;;;15.00;99.90;;;;;;4995643;28;20518;-86
2022/11/05 10:40:27;;;;;;;1.13;0.37;;;14.40;1.00;;;;;;4995779;28;20429;-92
2022/11/05 10:43:23;;;;;;;2.83;0.30;;;14.10;99.90;;;;;;4994300;28;20473;-86
2022/11/05 10:45:58;;;;;;;1.50;0.20;;;14.20;1.00;;;;;;4994403;28;20767;-85
2022/11/05 10:48:24;;;;;;;1.20;0.30;;;15.30;1.00;;;;;;4994636;28;20865;-86
2022/11/05 10:50:49;;;;;;;0.60;0.20;;;15.20;1.00;;;;;;4994325;28;20430;-87
2022/11/05 10:53:20;;;;;;;4.83;0.70;;;14.70;1.00;;;;;;4994853;28;20171;-88
2022/11/05 10:55:48;;;;;;;4.67;0.43;;;14.50;1.00;;;;;;4995084;28;20181;-86
2022/11/05 10:58:14;;;;;;;2.00;0.40;;;14.20;1.00;;;;;;4977494;28;20856;-86
2022/11/05 11:00:58;;;;;;;2.00;0.30;;;14.20;1.00;;;;;;4977105;28;20507;-87
2022/11/05 11:03:45;;;;;;;1.80;0.40;;;14.30;1.00;;;;;;4977616;28;20674;-86
2022/11/05 11:06:30;;;;;;;1.47;0.37;;;14.00;99.90;;;;;;4977328;28;20464;-87
2022/11/05 11:08:59;;;;;;;2.90;0.97;;;14.10;99.90;;;;;;4995403;28;20423;-89
2022/11/05 11:11:40;;;;;;;5.80;0.40;;;14.40;99.90;;;;;;4995240;28;20419;-89
2022/11/05 11:14:08;;;;;;;0.77;0.30;;;14.10;99.90;;;;;;4995417;28;20411;-91
2022/11/05 11:16:42;;;;;;;2.23;0.53;;;13.70;1.00;;;;;;4994833;28;20411;-88
2022/11/05 11:19:19;;;;;;;3.27;0.57;;;13.50;1.00;;;;;;4977840;28;20426;-89
2022/11/05 11:21:45;;;;;;;4.70;0.50;;;13.40;99.90;;;;;;4982311;28;20443;-87
2022/11/05 11:24:19;;;;;;;1.33;0.23;;;13.20;1.00;;;;;;4958737;28;20501;-88
2022/11/05 11:26:45;;;;;;;1.53;0.30;;;13.00;99.90;;;;;;4977101;28;20212;-95
2022/11/05 11:29:27;;;;;;;1.63;0.40;;;13.30;1.00;;;;;;4976746;28;20477;-89
2022/11/05 11:31:54;;;;;;;2.63;0.40;;;13.30;1.00;;;;;;4959825;28;20179;-88
2022/11/05 11:34:30;;;;;;;2.70;0.37;;;13.20;99.90;;;;;;4975459;28;20827;-89
2022/11/05 11:37:25;;;;;;;3.03;0.40;;;13.00;99.90;;;;;;4975533;28;20411;-89
2022/11/05 11:40:04;;;;;;;5.07;0.70;;;13.10;1.00;;;;;;4958192;28;20430;-88
2022/11/05 11:42:37;;;;;;;1.10;0.30;;;13.00;99.90;;;;;;4975446;28;21066;-88
2022/11/05 11:45:13;;;;;;;6.60;0.30;;;13.00;99.90;;;;;;4974923;28;20446;-88
2022/11/05 11:47:43;;;;;;;0.97;0.47;;;13.10;17.00;;;;;;4958297;28;20497;-88
2022/11/05 11:50:39;;;;;;;1.40;0.20;;;13.10;1.00;;;;;;4974914;28;20512;-88
2022/11/05 11:53:19;;;;;;;2.63;0.40;;;13.10;99.90;;;;;;4975077;28;20419;-89
2022/11/05 11:55:54;;;;;;;2.60;0.30;;;13.00;99.90;;;;;;4975493;28;20425;-88
2022/11/05 11:58:22;;;;;;;2.87;0.70;;;13.20;99.90;;;;;;4957942;28;20820;-91
2022/11/05 12:01:08;;;;;;;3.67;0.40;;;13.40;99.90;;;;;;4975477;28;20419;-90
2022/11/05 12:03:43;;;;;;;2.10;0.30;;;13.30;99.90;;;;;;4958475;28;20989;-90
2022/11/05 12:06:32;;;;;;;1.97;0.57;;;13.40;1.00;;;;;;4958294;28;20486;-89
2022/11/05 12:09:31;;;;;;;2.00;0.30;;;13.20;99.90;;;;;;4975443;28;20434;-90
2022/11/05 12:12:08;;;;;;;4.70;0.70;;;13.30;1.00;;;;;;4957759;28;20445;-90
2022/11/05 12:14:56;;;;;;;2.23;0.43;;;13.20;1.00;;;;;;4975834;28;20410;-91
2022/11/05 12:17:49;;;;;;;5.77;0.37;;;13.20;99.90;;;;;;4961263;28;20422;-93
2022/11/05 12:20:33;;;;;;;1.90;0.40;;;13.20;1.00;;;;;;4958809;28;20423;-89
2022/11/05 12:23:27;;;;;;;2.40;0.40;;;13.10;99.90;;;;;;4976452;28;20472;-89
2022/11/05 12:26:05;;;;;;;1.40;0.20;;;13.30;99.90;;;;;;4958554;28;20938;-90
2022/11/05 12:28:45;;;;;;;2.23;0.30;;;13.30;1.00;;;;;;4958013;28;20792;-90
2022/11/05 12:31:30;;;;;;;2.07;0.40;;;13.30;1.00;;;;;;4975124;28;20929;-90
2022/11/05 12:34:07;;;;;;;2.40;0.37;;;13.50;99.90;;;;;;4958600;28;20465;-90
2022/11/05 12:36:47;;;;;;;5.00;0.50;;;13.60;1.00;;;;;;4957709;28;20429;-90
2022/11/05 12:39:39;;;;;;;3.03;0.50;;;13.50;1.00;;;;;;4957696;28;20798;-89
2022/11/05 12:42:24;;;;;;;4.47;0.70;;;13.30;99.90;;;;;;4975217;28;20413;-89
2022/11/05 12:45:23;;;;;;;0.80;0.20;;;13.30;99.90;;;;;;4957685;28;20552;-89
2022/11/05 12:48:22;;;;;;;1.57;0.30;;;13.10;1.00;;;;;;4957679;28;20423;-90
2022/11/05 12:51:01;;;;;;;5.03;0.47;;;13.10;1.00;;;;;;4946570;28;20437;-92
2022/11/05 12:53:29;;;;;;;1.10;0.20;;;12.90;99.90;;;;;;4958663;28;20434;-92
2022/11/05 12:55:59;;;;;;;2.17;0.27;;;13.10;1.00;;;;;;4974612;28;20772;-87
2022/11/05 12:58:30;;;;;;;2.33;0.60;;;13.30;99.90;;;;;;4974101;28;20409;-87
2022/11/05 13:01:02;;;;;;;1.37;0.50;;;13.40;1.00;;;;;;4956417;28;20785;-86
2022/11/05 13:04:00;;;;;;;1.50;0.30;;;13.40;99.90;;;;;;4973636;28;20509;-87
2022/11/05 13:06:46;;;;;;;3.13;0.37;;;13.10;1.00;;;;;;4956690;28;20430;-88
2022/11/05 13:09:18;;;;;;;2.83;0.50;;;13.10;1.00;;;;;;4956653;28;20425;-87
2022/11/05 13:11:49;;;;;;;4.90;0.43;;;13.10;1.00;;;;;;4973792;28;20422;-90
2022/11/05 13:14:20;;;;;;;0.73;0.27;;;12.90;1.00;;;;;;4957608;28;20424;-91
2022/11/05 13:16:49;;;;;;;1.80;0.33;;;12.80;99.90;;;;;;4975199;28;20410;-91
2022/11/05 13:19:29;;;;;;;4.03;0.70;;;12.70;1.00;;;;;;4957241;28;20435;-85
2022/11/05 13:22:26;;;;;;;3.93;0.70;;;12.60;99.90;;;;;;4981522;28;20452;-83
2022/11/05 13:24:56;;;;;;;5.60;0.60;;;12.50;99.90;;;;;;4959227;28;20474;-84
2022/11/05 13:27:41;;;;;;;4.17;0.57;;;12.70;1.00;;;;;;4967081;28;20433;-87
2022/11/05 13:30:13;;;;;;;1.30;0.33;;;12.90;99.90;;;;;;4978863;28;20507;-86
2022/11/05 13:32:43;;;;;;;1.70;0.40;;;12.70;99.90;;;;;;4974254;28;20460;-90
2022/11/05 13:35:23;;;;;;;3.00;0.33;;;12.70;99.90;;;;;;4979690;28;20451;-91
2022/11/05 13:40:47;;;;;;;1.50;0.60;;;12.40;99.90;;;;;;4980348;28;20442;-88
2022/11/05 13:43:43;;;;;;;2.27;0.67;;;12.60;99.90;;;;;;4977942;28;20562;-94
2022/11/05 13:46:28;;;;;;;2.30;0.30;;;12.60;42.10;;;;;;4979855;28;20412;-85
2022/11/05 13:49:11;;;;;;;3.57;0.43;;;12.60;99.90;;;;;;4964543;28;20435;-84
2022/11/05 13:51:46;;;;;;;1.70;0.50;;;12.60;99.90;;;;;;4980753;28;20408;-89
2022/11/05 13:54:22;;;;;;;2.57;0.60;;;12.40;1.00;;;;;;4982199;28;20407;-89
2022/11/05 13:57:06;;;;;;;4.33;0.80;;;12.30;1.00;;;;;;4977983;28;20419;-90
2022/11/05 13:59:50;;;;;;;1.97;0.60;;;12.20;1.00;;;;;;4976962;28;20510;-86
2022/11/05 14:02:20;;;;;;;1.73;0.40;;;12.10;1.00;;;;;;4977691;28;20796;-90
2022/11/05 14:04:49;;;;;;;2.23;0.50;;;12.20;1.00;;;;;;4977482;28;20479;-88
2022/11/05 14:07:28;;;;;;;1.10;0.40;;;12.10;1.00;;;;;;4960905;28;20425;-87
2022/11/05 14:10:13;;;;;;;3.80;0.50;;;12.00;1.00;;;;;;4959906;28;20432;-86